sensor_id;sensor_type;location;lat;lon;timestamp;P1;durP1;ratioP1;P2;durP2;ratioP2
10705;SDS011;5404;42.656;23.336;2023-05-07T00:00:16;14.07;;;7.72;;
10705;SDS011;5404;42.656;23.336;2023-05-07T00:02:43;19.92;;;9.48;;
10705;SDS011;5404;42.656;23.336;2023-05-07T00:05:10;15.50;;;8.25;;
10705;SDS011;5404;42.656;23.336;2023-05-07T00:07:36;15.68;;;9.30;;
10705;SDS011;5404;42.656;23.336;2023-05-07T00:10:02;19.23;;;8.38;;
10705;SDS011;5404;42.656;23.336;2023-05-07T00:12:29;19.42;;;9.20;;
10705;SDS011;5404;42.656;23.336;2023-05-07T00:14:58;15.00;;;8.80;;
10705;SDS011;5404;42.656;23.336;2023-05-07T00:17:27;15.05;;;9.10;;
10705;SDS011;5404;42.656;23.336;2023-05-07T00:19:53;17.33;;;9.18;;
10705;SDS011;5404;42.656;23.336;2023-05-07T00:22:18;15.35;;;9.35;;
10705;SDS011;5404;42.656;23.336;2023-05-07T00:24:46;21.42;;;11.75;;
10705;SDS011;5404;42.656;23.336;2023-05-07T00:27:13;23.17;;;11.35;;
10705;SDS011;5404;42.656;23.336;2023-05-07T00:29:38;25.42;;;10.98;;
10705;SDS011;5404;42.656;23.336;2023-05-07T00:32:04;27.20;;;11.88;;
10705;SDS011;5404;42.656;23.336;2023-05-07T00:34:30;26.77;;;12.20;;
10705;SDS011;5404;42.656;23.336;2023-05-07T00:36:55;22.55;;;12.35;;
10705;SDS011;5404;42.656;23.336;2023-05-07T00:39:20;21.08;;;12.75;;
10705;SDS011;5404;42.656;23.336;2023-05-07T00:41:46;23.10;;;11.73;;
10705;SDS011;5404;42.656;23.336;2023-05-07T00:44:12;34.00;;;11.52;;
10705;SDS011;5404;42.656;23.336;2023-05-07T00:46:38;18.45;;;11.52;;
10705;SDS011;5404;42.656;23.336;2023-05-07T00:49:03;21.98;;;10.95;;
10705;SDS011;5404;42.656;23.336;2023-05-07T00:51:30;25.60;;;11.15;;
10705;SDS011;5404;42.656;23.336;2023-05-07T00:53:56;22.70;;;10.90;;
10705;SDS011;5404;42.656;23.336;2023-05-07T00:56:24;26.40;;;10.73;;
10705;SDS011;5404;42.656;23.336;2023-05-07T00:58:50;20.88;;;10.77;;
10705;SDS011;5404;42.656;23.336;2023-05-07T01:01:15;25.65;;;11.70;;
10705;SDS011;5404;42.656;23.336;2023-05-07T01:03:41;27.92;;;10.77;;
10705;SDS011;5404;42.656;23.336;2023-05-07T01:06:07;19.35;;;11.13;;
10705;SDS011;5404;42.656;23.336;2023-05-07T01:08:36;24.85;;;12.13;;
10705;SDS011;5404;42.656;23.336;2023-05-07T01:11:03;18.10;;;10.27;;
10705;SDS011;5404;42.656;23.336;2023-05-07T01:13:29;20.90;;;11.07;;
10705;SDS011;5404;42.656;23.336;2023-05-07T01:15:55;20.38;;;11.63;;
10705;SDS011;5404;42.656;23.336;2023-05-07T01:18:22;29.73;;;11.18;;
10705;SDS011;5404;42.656;23.336;2023-05-07T01:20:48;18.23;;;10.98;;
10705;SDS011;5404;42.656;23.336;2023-05-07T01:23:13;22.13;;;12.05;;
10705;SDS011;5404;42.656;23.336;2023-05-07T01:25:40;23.55;;;11.63;;
10705;SDS011;5404;42.656;23.336;2023-05-07T01:28:05;24.52;;;11.77;;
10705;SDS011;5404;42.656;23.336;2023-05-07T01:30:33;16.27;;;9.35;;
10705;SDS011;5404;42.656;23.336;2023-05-07T01:33:01;16.10;;;9.90;;
10705;SDS011;5404;42.656;23.336;2023-05-07T01:35:32;14.65;;;8.13;;
10705;SDS011;5404;42.656;23.336;2023-05-07T01:38:05;10.02;;;6.97;;
10705;SDS011;5404;42.656;23.336;2023-05-07T01:40:32;14.45;;;6.78;;
10705;SDS011;5404;42.656;23.336;2023-05-07T01:42:59;12.38;;;6.53;;
10705;SDS011;5404;42.656;23.336;2023-05-07T01:45:25;12.35;;;6.82;;
10705;SDS011;5404;42.656;23.336;2023-05-07T01:47:51;13.65;;;7.13;;
10705;SDS011;5404;42.656;23.336;2023-05-07T01:50:18;17.13;;;6.85;;
10705;SDS011;5404;42.656;23.336;2023-05-07T01:52:46;12.85;;;7.75;;
10705;SDS011;5404;42.656;23.336;2023-05-07T01:55:12;14.13;;;8.80;;
10705;SDS011;5404;42.656;23.336;2023-05-07T01:57:38;13.32;;;9.15;;
10705;SDS011;5404;42.656;23.336;2023-05-07T02:00:04;15.68;;;8.85;;
10705;SDS011;5404;42.656;23.336;2023-05-07T02:02:30;14.93;;;9.00;;
10705;SDS011;5404;42.656;23.336;2023-05-07T02:04:56;15.07;;;9.43;;
10705;SDS011;5404;42.656;23.336;2023-05-07T02:07:22;14.65;;;9.63;;
10705;SDS011;5404;42.656;23.336;2023-05-07T02:09:48;17.05;;;9.80;;
10705;SDS011;5404;42.656;23.336;2023-05-07T02:12:13;21.98;;;10.50;;
10705;SDS011;5404;42.656;23.336;2023-05-07T02:14:38;15.18;;;9.63;;
10705;SDS011;5404;42.656;23.336;2023-05-07T02:17:04;18.58;;;10.23;;
10705;SDS011;5404;42.656;23.336;2023-05-07T02:19:29;13.90;;;9.05;;
10705;SDS011;5404;42.656;23.336;2023-05-07T02:21:55;12.38;;;8.70;;
10705;SDS011;5404;42.656;23.336;2023-05-07T02:24:20;15.27;;;9.32;;
10705;SDS011;5404;42.656;23.336;2023-05-07T02:26:47;15.45;;;8.98;;
10705;SDS011;5404;42.656;23.336;2023-05-07T02:29:12;16.75;;;8.68;;
10705;SDS011;5404;42.656;23.336;2023-05-07T02:31:38;15.02;;;8.57;;
10705;SDS011;5404;42.656;23.336;2023-05-07T02:34:03;15.68;;;8.95;;
10705;SDS011;5404;42.656;23.336;2023-05-07T02:36:29;12.65;;;8.88;;
10705;SDS011;5404;42.656;23.336;2023-05-07T02:38:55;15.13;;;9.57;;
10705;SDS011;5404;42.656;23.336;2023-05-07T02:41:21;13.75;;;9.07;;
10705;SDS011;5404;42.656;23.336;2023-05-07T02:43:48;17.73;;;9.07;;
10705;SDS011;5404;42.656;23.336;2023-05-07T02:46:14;17.27;;;10.45;;
10705;SDS011;5404;42.656;23.336;2023-05-07T02:48:40;14.55;;;10.40;;
10705;SDS011;5404;42.656;23.336;2023-05-07T02:51:07;15.88;;;10.25;;
10705;SDS011;5404;42.656;23.336;2023-05-07T02:53:32;19.80;;;10.27;;
10705;SDS011;5404;42.656;23.336;2023-05-07T02:55:58;16.05;;;9.40;;
10705;SDS011;5404;42.656;23.336;2023-05-07T02:58:26;16.17;;;10.37;;
10705;SDS011;5404;42.656;23.336;2023-05-07T03:00:52;19.40;;;10.75;;
10705;SDS011;5404;42.656;23.336;2023-05-07T03:03:19;18.63;;;11.13;;
10705;SDS011;5404;42.656;23.336;2023-05-07T03:05:45;21.83;;;10.35;;
10705;SDS011;5404;42.656;23.336;2023-05-07T03:08:10;15.55;;;10.45;;
10705;SDS011;5404;42.656;23.336;2023-05-07T03:10:36;16.48;;;10.60;;
10705;SDS011;5404;42.656;23.336;2023-05-07T03:13:02;18.02;;;11.00;;
10705;SDS011;5404;42.656;23.336;2023-05-07T03:15:28;18.58;;;10.82;;
10705;SDS011;5404;42.656;23.336;2023-05-07T03:17:53;18.48;;;11.05;;
10705;SDS011;5404;42.656;23.336;2023-05-07T03:20:20;17.42;;;11.25;;
10705;SDS011;5404;42.656;23.336;2023-05-07T03:22:45;21.35;;;12.63;;
10705;SDS011;5404;42.656;23.336;2023-05-07T03:25:11;18.80;;;11.52;;
10705;SDS011;5404;42.656;23.336;2023-05-07T03:27:37;20.45;;;11.52;;
10705;SDS011;5404;42.656;23.336;2023-05-07T03:30:03;20.27;;;11.15;;
10705;SDS011;5404;42.656;23.336;2023-05-07T03:32:29;19.42;;;11.38;;
10705;SDS011;5404;42.656;23.336;2023-05-07T03:34:54;26.88;;;11.73;;
10705;SDS011;5404;42.656;23.336;2023-05-07T03:37:20;20.48;;;11.70;;
10705;SDS011;5404;42.656;23.336;2023-05-07T03:39:46;21.95;;;11.48;;
10705;SDS011;5404;42.656;23.336;2023-05-07T03:42:12;20.17;;;11.27;;
10705;SDS011;5404;42.656;23.336;2023-05-07T03:44:37;21.10;;;11.02;;
10705;SDS011;5404;42.656;23.336;2023-05-07T03:47:03;27.17;;;12.43;;
10705;SDS011;5404;42.656;23.336;2023-05-07T03:49:29;26.13;;;12.18;;
10705;SDS011;5404;42.656;23.336;2023-05-07T03:51:54;19.23;;;11.98;;
10705;SDS011;5404;42.656;23.336;2023-05-07T03:54:22;20.80;;;12.63;;
10705;SDS011;5404;42.656;23.336;2023-05-07T03:56:47;24.20;;;11.90;;
10705;SDS011;5404;42.656;23.336;2023-05-07T03:59:14;24.38;;;11.38;;
10705;SDS011;5404;42.656;23.336;2023-05-07T04:01:40;20.30;;;12.10;;
10705;SDS011;5404;42.656;23.336;2023-05-07T04:04:05;22.42;;;11.70;;
10705;SDS011;5404;42.656;23.336;2023-05-07T04:06:31;21.25;;;11.90;;
10705;SDS011;5404;42.656;23.336;2023-05-07T04:08:56;30.33;;;11.27;;
10705;SDS011;5404;42.656;23.336;2023-05-07T04:11:22;21.08;;;11.90;;
10705;SDS011;5404;42.656;23.336;2023-05-07T04:13:47;21.58;;;12.63;;
10705;SDS011;5404;42.656;23.336;2023-05-07T04:16:13;24.20;;;11.52;;
10705;SDS011;5404;42.656;23.336;2023-05-07T04:18:38;19.92;;;11.63;;
10705;SDS011;5404;42.656;23.336;2023-05-07T04:21:04;19.85;;;11.77;;
10705;SDS011;5404;42.656;23.336;2023-05-07T04:23:30;28.60;;;12.43;;
10705;SDS011;5404;42.656;23.336;2023-05-07T04:25:56;23.63;;;11.85;;
10705;SDS011;5404;42.656;23.336;2023-05-07T04:28:22;19.42;;;12.82;;
10705;SDS011;5404;42.656;23.336;2023-05-07T04:30:48;23.05;;;11.90;;
10705;SDS011;5404;42.656;23.336;2023-05-07T04:33:14;21.00;;;12.40;;
10705;SDS011;5404;42.656;23.336;2023-05-07T04:35:42;25.23;;;12.23;;
10705;SDS011;5404;42.656;23.336;2023-05-07T04:38:08;18.63;;;11.40;;
10705;SDS011;5404;42.656;23.336;2023-05-07T04:40:37;25.10;;;12.52;;
10705;SDS011;5404;42.656;23.336;2023-05-07T04:43:05;22.02;;;12.02;;
10705;SDS011;5404;42.656;23.336;2023-05-07T04:45:30;21.15;;;12.48;;
10705;SDS011;5404;42.656;23.336;2023-05-07T04:47:56;25.95;;;12.73;;
10705;SDS011;5404;42.656;23.336;2023-05-07T04:50:21;23.63;;;12.85;;
10705;SDS011;5404;42.656;23.336;2023-05-07T04:52:49;22.90;;;11.70;;
10705;SDS011;5404;42.656;23.336;2023-05-07T04:55:15;18.50;;;11.15;;
10705;SDS011;5404;42.656;23.336;2023-05-07T04:57:41;16.92;;;10.93;;
10705;SDS011;5404;42.656;23.336;2023-05-07T05:00:08;18.88;;;11.82;;
10705;SDS011;5404;42.656;23.336;2023-05-07T05:02:34;19.42;;;11.50;;
10705;SDS011;5404;42.656;23.336;2023-05-07T05:05:00;27.45;;;12.63;;
10705;SDS011;5404;42.656;23.336;2023-05-07T05:07:27;22.25;;;12.45;;
10705;SDS011;5404;42.656;23.336;2023-05-07T05:09:53;22.70;;;13.20;;
10705;SDS011;5404;42.656;23.336;2023-05-07T05:12:20;22.33;;;12.77;;
10705;SDS011;5404;42.656;23.336;2023-05-07T05:14:45;23.02;;;12.95;;
10705;SDS011;5404;42.656;23.336;2023-05-07T05:17:12;24.70;;;12.45;;
10705;SDS011;5404;42.656;23.336;2023-05-07T05:19:37;19.47;;;11.83;;
10705;SDS011;5404;42.656;23.336;2023-05-07T05:22:02;20.80;;;11.43;;
10705;SDS011;5404;42.656;23.336;2023-05-07T05:24:29;16.92;;;11.00;;
10705;SDS011;5404;42.656;23.336;2023-05-07T05:26:55;22.58;;;12.30;;
10705;SDS011;5404;42.656;23.336;2023-05-07T05:29:23;20.73;;;11.55;;
10705;SDS011;5404;42.656;23.336;2023-05-07T05:31:48;20.02;;;12.40;;
10705;SDS011;5404;42.656;23.336;2023-05-07T05:34:14;20.27;;;11.30;;
10705;SDS011;5404;42.656;23.336;2023-05-07T05:36:39;22.45;;;11.45;;
10705;SDS011;5404;42.656;23.336;2023-05-07T05:39:05;30.05;;;11.63;;
10705;SDS011;5404;42.656;23.336;2023-05-07T05:41:33;19.42;;;11.57;;
10705;SDS011;5404;42.656;23.336;2023-05-07T05:43:59;20.30;;;11.30;;
10705;SDS011;5404;42.656;23.336;2023-05-07T05:46:24;18.88;;;11.23;;
10705;SDS011;5404;42.656;23.336;2023-05-07T05:48:51;15.52;;;10.73;;
10705;SDS011;5404;42.656;23.336;2023-05-07T05:51:16;15.40;;;10.50;;
10705;SDS011;5404;42.656;23.336;2023-05-07T05:53:42;22.20;;;9.88;;
10705;SDS011;5404;42.656;23.336;2023-05-07T05:56:09;22.88;;;11.93;;
10705;SDS011;5404;42.656;23.336;2023-05-07T05:58:34;19.35;;;11.27;;
10705;SDS011;5404;42.656;23.336;2023-05-07T06:01:00;25.92;;;10.98;;
10705;SDS011;5404;42.656;23.336;2023-05-07T06:03:27;20.98;;;10.18;;
10705;SDS011;5404;42.656;23.336;2023-05-07T06:05:53;14.35;;;9.57;;
10705;SDS011;5404;42.656;23.336;2023-05-07T06:08:18;16.80;;;9.35;;
10705;SDS011;5404;42.656;23.336;2023-05-07T06:10:44;15.02;;;8.77;;
10705;SDS011;5404;42.656;23.336;2023-05-07T06:13:11;13.60;;;8.48;;
10705;SDS011;5404;42.656;23.336;2023-05-07T06:15:37;13.20;;;8.20;;
10705;SDS011;5404;42.656;23.336;2023-05-07T06:18:03;20.85;;;8.63;;
10705;SDS011;5404;42.656;23.336;2023-05-07T06:20:29;12.90;;;8.48;;
10705;SDS011;5404;42.656;23.336;2023-05-07T06:22:55;13.60;;;8.90;;
10705;SDS011;5404;42.656;23.336;2023-05-07T06:25:24;14.60;;;8.82;;
10705;SDS011;5404;42.656;23.336;2023-05-07T06:27:49;13.82;;;8.15;;
10705;SDS011;5404;42.656;23.336;2023-05-07T06:30:16;14.75;;;8.57;;
10705;SDS011;5404;42.656;23.336;2023-05-07T06:32:43;15.15;;;8.57;;
10705;SDS011;5404;42.656;23.336;2023-05-07T06:35:08;13.63;;;7.82;;
10705;SDS011;5404;42.656;23.336;2023-05-07T06:37:34;11.23;;;7.90;;
10705;SDS011;5404;42.656;23.336;2023-05-07T06:39:59;13.90;;;8.10;;
10705;SDS011;5404;42.656;23.336;2023-05-07T06:42:25;12.90;;;7.30;;
10705;SDS011;5404;42.656;23.336;2023-05-07T06:44:51;15.32;;;7.80;;
10705;SDS011;5404;42.656;23.336;2023-05-07T06:47:17;18.30;;;8.43;;
10705;SDS011;5404;42.656;23.336;2023-05-07T06:49:44;14.70;;;8.25;;
10705;SDS011;5404;42.656;23.336;2023-05-07T06:52:10;16.23;;;8.45;;
10705;SDS011;5404;42.656;23.336;2023-05-07T06:54:37;24.60;;;8.80;;
10705;SDS011;5404;42.656;23.336;2023-05-07T06:57:02;14.68;;;8.20;;
10705;SDS011;5404;42.656;23.336;2023-05-07T06:59:27;17.02;;;8.20;;
10705;SDS011;5404;42.656;23.336;2023-05-07T07:01:53;15.43;;;8.73;;
10705;SDS011;5404;42.656;23.336;2023-05-07T07:04:18;14.15;;;8.15;;
10705;SDS011;5404;42.656;23.336;2023-05-07T07:06:44;14.20;;;9.25;;
10705;SDS011;5404;42.656;23.336;2023-05-07T07:09:10;17.45;;;9.00;;
10705;SDS011;5404;42.656;23.336;2023-05-07T07:11:36;14.52;;;8.90;;
10705;SDS011;5404;42.656;23.336;2023-05-07T07:14:01;15.80;;;8.73;;
10705;SDS011;5404;42.656;23.336;2023-05-07T07:16:27;21.27;;;9.18;;
10705;SDS011;5404;42.656;23.336;2023-05-07T07:18:52;12.27;;;8.43;;
10705;SDS011;5404;42.656;23.336;2023-05-07T07:21:19;17.27;;;8.50;;
10705;SDS011;5404;42.656;23.336;2023-05-07T07:23:45;17.90;;;9.47;;
10705;SDS011;5404;42.656;23.336;2023-05-07T07:26:11;13.25;;;8.77;;
10705;SDS011;5404;42.656;23.336;2023-05-07T07:28:43;15.70;;;9.05;;
10705;SDS011;5404;42.656;23.336;2023-05-07T07:31:13;14.27;;;8.27;;
10705;SDS011;5404;42.656;23.336;2023-05-07T07:33:38;15.40;;;9.60;;
10705;SDS011;5404;42.656;23.336;2023-05-07T07:36:05;13.35;;;8.77;;
10705;SDS011;5404;42.656;23.336;2023-05-07T07:38:31;17.75;;;9.85;;
10705;SDS011;5404;42.656;23.336;2023-05-07T07:40:56;17.90;;;10.32;;
10705;SDS011;5404;42.656;23.336;2023-05-07T07:43:22;18.33;;;9.85;;
10705;SDS011;5404;42.656;23.336;2023-05-07T07:45:47;18.40;;;10.45;;
10705;SDS011;5404;42.656;23.336;2023-05-07T07:48:14;16.35;;;11.43;;
10705;SDS011;5404;42.656;23.336;2023-05-07T07:50:39;24.10;;;12.85;;
10705;SDS011;5404;42.656;23.336;2023-05-07T07:53:05;17.95;;;10.60;;
10705;SDS011;5404;42.656;23.336;2023-05-07T07:55:32;22.23;;;11.13;;
10705;SDS011;5404;42.656;23.336;2023-05-07T07:58:03;17.85;;;11.48;;
10705;SDS011;5404;42.656;23.336;2023-05-07T08:00:28;23.25;;;11.43;;
10705;SDS011;5404;42.656;23.336;2023-05-07T08:02:55;15.85;;;10.07;;
10705;SDS011;5404;42.656;23.336;2023-05-07T08:05:20;18.08;;;10.23;;
10705;SDS011;5404;42.656;23.336;2023-05-07T08:07:47;16.15;;;9.15;;
10705;SDS011;5404;42.656;23.336;2023-05-07T08:10:17;18.30;;;10.15;;
10705;SDS011;5404;42.656;23.336;2023-05-07T08:12:46;11.00;;;7.80;;
10705;SDS011;5404;42.656;23.336;2023-05-07T08:15:15;18.05;;;9.60;;
10705;SDS011;5404;42.656;23.336;2023-05-07T08:17:40;16.35;;;10.10;;
10705;SDS011;5404;42.656;23.336;2023-05-07T08:20:07;17.30;;;10.43;;
10705;SDS011;5404;42.656;23.336;2023-05-07T08:22:33;18.30;;;10.15;;
10705;SDS011;5404;42.656;23.336;2023-05-07T08:24:59;21.15;;;9.70;;
10705;SDS011;5404;42.656;23.336;2023-05-07T08:27:25;17.48;;;9.10;;
10705;SDS011;5404;42.656;23.336;2023-05-07T08:29:52;15.07;;;8.52;;
10705;SDS011;5404;42.656;23.336;2023-05-07T08:32:17;12.05;;;8.15;;
10705;SDS011;5404;42.656;23.336;2023-05-07T08:34:43;13.23;;;8.55;;
10705;SDS011;5404;42.656;23.336;2023-05-07T08:37:08;14.13;;;9.05;;
10705;SDS011;5404;42.656;23.336;2023-05-07T08:39:34;14.52;;;9.07;;
10705;SDS011;5404;42.656;23.336;2023-05-07T08:41:59;12.68;;;8.18;;
10705;SDS011;5404;42.656;23.336;2023-05-07T08:44:27;13.80;;;9.38;;
10705;SDS011;5404;42.656;23.336;2023-05-07T08:46:57;16.08;;;9.10;;
10705;SDS011;5404;42.656;23.336;2023-05-07T08:49:24;16.35;;;8.60;;
10705;SDS011;5404;42.656;23.336;2023-05-07T08:51:50;19.95;;;8.95;;
10705;SDS011;5404;42.656;23.336;2023-05-07T08:54:16;14.48;;;8.18;;
10705;SDS011;5404;42.656;23.336;2023-05-07T08:56:44;15.55;;;8.98;;
10705;SDS011;5404;42.656;23.336;2023-05-07T08:59:10;14.63;;;8.95;;
10705;SDS011;5404;42.656;23.336;2023-05-07T09:01:35;21.77;;;9.00;;
10705;SDS011;5404;42.656;23.336;2023-05-07T09:04:04;14.48;;;8.43;;
10705;SDS011;5404;42.656;23.336;2023-05-07T09:06:30;14.73;;;8.80;;
10705;SDS011;5404;42.656;23.336;2023-05-07T09:08:56;13.00;;;8.73;;
10705;SDS011;5404;42.656;23.336;2023-05-07T09:11:26;13.65;;;8.57;;
10705;SDS011;5404;42.656;23.336;2023-05-07T09:13:53;14.43;;;8.32;;
10705;SDS011;5404;42.656;23.336;2023-05-07T09:16:22;19.85;;;8.52;;
10705;SDS011;5404;42.656;23.336;2023-05-07T09:18:52;20.27;;;8.60;;
10705;SDS011;5404;42.656;23.336;2023-05-07T09:21:22;14.82;;;8.35;;
10705;SDS011;5404;42.656;23.336;2023-05-07T09:23:53;13.23;;;8.07;;
10705;SDS011;5404;42.656;23.336;2023-05-07T09:26:23;18.95;;;8.90;;
10705;SDS011;5404;42.656;23.336;2023-05-07T09:28:49;10.35;;;7.43;;
10705;SDS011;5404;42.656;23.336;2023-05-07T09:31:15;12.27;;;6.78;;
10705;SDS011;5404;42.656;23.336;2023-05-07T09:33:42;13.07;;;7.32;;
10705;SDS011;5404;42.656;23.336;2023-05-07T09:36:08;12.13;;;6.97;;
10705;SDS011;5404;42.656;23.336;2023-05-07T09:38:36;9.32;;;7.13;;
10705;SDS011;5404;42.656;23.336;2023-05-07T09:43:33;14.23;;;7.13;;
10705;SDS011;5404;42.656;23.336;2023-05-07T09:46:05;14.05;;;6.03;;
10705;SDS011;5404;42.656;23.336;2023-05-07T09:48:38;15.52;;;6.22;;
10705;SDS011;5404;42.656;23.336;2023-05-07T09:53:52;10.68;;;5.85;;
10705;SDS011;5404;42.656;23.336;2023-05-07T09:56:18;11.93;;;6.10;;
10705;SDS011;5404;42.656;23.336;2023-05-07T09:58:45;9.70;;;6.22;;
10705;SDS011;5404;42.656;23.336;2023-05-07T10:01:12;20.48;;;6.10;;
10705;SDS011;5404;42.656;23.336;2023-05-07T10:03:41;5.75;;;4.05;;
10705;SDS011;5404;42.656;23.336;2023-05-07T10:06:10;9.88;;;4.72;;
10705;SDS011;5404;42.656;23.336;2023-05-07T10:08:38;8.15;;;4.53;;
10705;SDS011;5404;42.656;23.336;2023-05-07T10:11:04;4.53;;;3.60;;
10705;SDS011;5404;42.656;23.336;2023-05-07T10:13:31;6.95;;;4.20;;
10705;SDS011;5404;42.656;23.336;2023-05-07T10:15:59;7.10;;;3.22;;
10705;SDS011;5404;42.656;23.336;2023-05-07T10:18:25;6.40;;;3.60;;
10705;SDS011;5404;42.656;23.336;2023-05-07T10:20:55;12.10;;;4.93;;
10705;SDS011;5404;42.656;23.336;2023-05-07T10:23:26;6.55;;;4.47;;
10705;SDS011;5404;42.656;23.336;2023-05-07T10:25:52;12.25;;;4.60;;
10705;SDS011;5404;42.656;23.336;2023-05-07T10:28:23;6.22;;;3.90;;
10705;SDS011;5404;42.656;23.336;2023-05-07T10:33:55;6.57;;;4.45;;
10705;SDS011;5404;42.656;23.336;2023-05-07T10:36:23;7.63;;;4.38;;
10705;SDS011;5404;42.656;23.336;2023-05-07T10:38:49;7.80;;;4.10;;
10705;SDS011;5404;42.656;23.336;2023-05-07T10:41:15;7.22;;;3.70;;
10705;SDS011;5404;42.656;23.336;2023-05-07T10:43:42;7.82;;;4.30;;
10705;SDS011;5404;42.656;23.336;2023-05-07T10:51:31;6.35;;;3.88;;
10705;SDS011;5404;42.656;23.336;2023-05-07T10:56:42;8.10;;;3.67;;
10705;SDS011;5404;42.656;23.336;2023-05-07T11:04:29;8.82;;;4.20;;
10705;SDS011;5404;42.656;23.336;2023-05-07T11:15:08;9.27;;;4.00;;
10705;SDS011;5404;42.656;23.336;2023-05-07T11:17:56;6.15;;;3.63;;
10705;SDS011;5404;42.656;23.336;2023-05-07T11:26:02;8.70;;;3.80;;
10705;SDS011;5404;42.656;23.336;2023-05-07T11:28:29;6.90;;;3.95;;
10705;SDS011;5404;42.656;23.336;2023-05-07T11:30:56;6.35;;;4.28;;
10705;SDS011;5404;42.656;23.336;2023-05-07T11:33:24;4.38;;;3.97;;
10705;SDS011;5404;42.656;23.336;2023-05-07T11:35:50;6.03;;;3.65;;
10705;SDS011;5404;42.656;23.336;2023-05-07T11:38:20;7.60;;;4.60;;
10705;SDS011;5404;42.656;23.336;2023-05-07T11:40:50;7.43;;;4.55;;
10705;SDS011;5404;42.656;23.336;2023-05-07T11:43:16;8.50;;;4.18;;
10705;SDS011;5404;42.656;23.336;2023-05-07T11:45:42;6.18;;;3.83;;
10705;SDS011;5404;42.656;23.336;2023-05-07T11:48:08;7.18;;;3.97;;
10705;SDS011;5404;42.656;23.336;2023-05-07T11:50:34;8.57;;;3.97;;
10705;SDS011;5404;42.656;23.336;2023-05-07T11:53:00;7.00;;;3.90;;
10705;SDS011;5404;42.656;23.336;2023-05-07T11:55:32;5.90;;;4.13;;
10705;SDS011;5404;42.656;23.336;2023-05-07T11:57:58;8.68;;;4.60;;
10705;SDS011;5404;42.656;23.336;2023-05-07T12:00:23;5.78;;;4.00;;
10705;SDS011;5404;42.656;23.336;2023-05-07T12:02:49;6.18;;;3.97;;
10705;SDS011;5404;42.656;23.336;2023-05-07T12:05:15;8.10;;;4.72;;
10705;SDS011;5404;42.656;23.336;2023-05-07T12:07:41;4.70;;;3.83;;
10705;SDS011;5404;42.656;23.336;2023-05-07T12:10:07;7.22;;;4.43;;
10705;SDS011;5404;42.656;23.336;2023-05-07T12:12:41;7.22;;;4.38;;
10705;SDS011;5404;42.656;23.336;2023-05-07T12:15:13;6.85;;;4.45;;
10705;SDS011;5404;42.656;23.336;2023-05-07T12:17:41;9.75;;;4.80;;
10705;SDS011;5404;42.656;23.336;2023-05-07T12:20:07;8.70;;;4.10;;
10705;SDS011;5404;42.656;23.336;2023-05-07T12:22:34;6.13;;;4.25;;
10705;SDS011;5404;42.656;23.336;2023-05-07T12:25:00;6.40;;;4.07;;
10705;SDS011;5404;42.656;23.336;2023-05-07T12:27:26;5.35;;;3.60;;
10705;SDS011;5404;42.656;23.336;2023-05-07T12:29:52;4.70;;;3.75;;
10705;SDS011;5404;42.656;23.336;2023-05-07T12:32:21;10.43;;;3.85;;
10705;SDS011;5404;42.656;23.336;2023-05-07T12:34:49;5.13;;;3.78;;
10705;SDS011;5404;42.656;23.336;2023-05-07T12:37:15;11.37;;;4.07;;
10705;SDS011;5404;42.656;23.336;2023-05-07T12:40:02;5.03;;;3.70;;
10705;SDS011;5404;42.656;23.336;2023-05-07T12:42:35;7.25;;;3.92;;
10705;SDS011;5404;42.656;23.336;2023-05-07T12:45:12;6.05;;;3.80;;
10705;SDS011;5404;42.656;23.336;2023-05-07T12:47:44;6.88;;;3.35;;
10705;SDS011;5404;42.656;23.336;2023-05-07T12:50:10;5.53;;;3.40;;
10705;SDS011;5404;42.656;23.336;2023-05-07T12:52:37;6.18;;;3.40;;
10705;SDS011;5404;42.656;23.336;2023-05-07T12:55:07;3.90;;;2.78;;
10705;SDS011;5404;42.656;23.336;2023-05-07T12:57:43;3.67;;;2.80;;
10705;SDS011;5404;42.656;23.336;2023-05-07T13:00:13;4.95;;;3.10;;
10705;SDS011;5404;42.656;23.336;2023-05-07T13:02:41;5.47;;;3.20;;
10705;SDS011;5404;42.656;23.336;2023-05-07T13:05:09;5.38;;;2.88;;
10705;SDS011;5404;42.656;23.336;2023-05-07T13:07:35;3.65;;;3.13;;
10705;SDS011;5404;42.656;23.336;2023-05-07T13:10:02;4.20;;;2.85;;
10705;SDS011;5404;42.656;23.336;2023-05-07T13:12:28;6.57;;;2.67;;
10705;SDS011;5404;42.656;23.336;2023-05-07T13:14:53;2.72;;;2.20;;
10705;SDS011;5404;42.656;23.336;2023-05-07T13:17:20;6.03;;;3.22;;
10705;SDS011;5404;42.656;23.336;2023-05-07T13:19:45;4.00;;;2.78;;
10705;SDS011;5404;42.656;23.336;2023-05-07T13:22:11;3.58;;;2.90;;
10705;SDS011;5404;42.656;23.336;2023-05-07T13:24:38;3.15;;;2.70;;
10705;SDS011;5404;42.656;23.336;2023-05-07T13:27:06;4.43;;;3.30;;
10705;SDS011;5404;42.656;23.336;2023-05-07T13:29:32;11.40;;;3.05;;
10705;SDS011;5404;42.656;23.336;2023-05-07T13:31:57;4.53;;;3.08;;
10705;SDS011;5404;42.656;23.336;2023-05-07T13:34:22;5.85;;;3.10;;
10705;SDS011;5404;42.656;23.336;2023-05-07T13:36:48;4.32;;;2.80;;
10705;SDS011;5404;42.656;23.336;2023-05-07T13:39:16;4.25;;;3.10;;
10705;SDS011;5404;42.656;23.336;2023-05-07T13:41:42;3.70;;;2.92;;
10705;SDS011;5404;42.656;23.336;2023-05-07T13:44:08;4.97;;;3.10;;
10705;SDS011;5404;42.656;23.336;2023-05-07T13:46:34;6.90;;;3.30;;
10705;SDS011;5404;42.656;23.336;2023-05-07T13:49:00;4.78;;;2.85;;
10705;SDS011;5404;42.656;23.336;2023-05-07T13:51:26;5.38;;;2.70;;
10705;SDS011;5404;42.656;23.336;2023-05-07T13:53:51;17.27;;;3.47;;
10705;SDS011;5404;42.656;23.336;2023-05-07T13:56:19;5.25;;;2.72;;
10705;SDS011;5404;42.656;23.336;2023-05-07T13:58:46;6.35;;;2.83;;
10705;SDS011;5404;42.656;23.336;2023-05-07T14:01:11;5.63;;;2.80;;
10705;SDS011;5404;42.656;23.336;2023-05-07T14:03:37;6.35;;;3.50;;
10705;SDS011;5404;42.656;23.336;2023-05-07T14:06:04;7.53;;;3.63;;
10705;SDS011;5404;42.656;23.336;2023-05-07T14:08:30;4.70;;;3.35;;
10705;SDS011;5404;42.656;23.336;2023-05-07T14:10:55;9.65;;;3.42;;
10705;SDS011;5404;42.656;23.336;2023-05-07T14:13:21;3.47;;;2.97;;
10705;SDS011;5404;42.656;23.336;2023-05-07T14:15:46;3.25;;;2.58;;
10705;SDS011;5404;42.656;23.336;2023-05-07T14:18:14;5.60;;;3.30;;
10705;SDS011;5404;42.656;23.336;2023-05-07T14:20:41;6.13;;;3.55;;
10705;SDS011;5404;42.656;23.336;2023-05-07T14:23:11;5.88;;;3.03;;
10705;SDS011;5404;42.656;23.336;2023-05-07T14:25:39;6.18;;;3.40;;
10705;SDS011;5404;42.656;23.336;2023-05-07T14:28:04;3.83;;;2.83;;
10705;SDS011;5404;42.656;23.336;2023-05-07T14:30:30;7.93;;;3.20;;
10705;SDS011;5404;42.656;23.336;2023-05-07T14:32:56;7.28;;;3.42;;
10705;SDS011;5404;42.656;23.336;2023-05-07T14:35:23;5.35;;;3.00;;
10705;SDS011;5404;42.656;23.336;2023-05-07T14:37:50;6.85;;;3.17;;
10705;SDS011;5404;42.656;23.336;2023-05-07T14:40:15;5.05;;;2.83;;
10705;SDS011;5404;42.656;23.336;2023-05-07T14:42:41;3.90;;;2.85;;
10705;SDS011;5404;42.656;23.336;2023-05-07T14:45:06;4.53;;;3.00;;
10705;SDS011;5404;42.656;23.336;2023-05-07T14:47:33;3.22;;;2.92;;
10705;SDS011;5404;42.656;23.336;2023-05-07T14:49:58;4.78;;;2.95;;
10705;SDS011;5404;42.656;23.336;2023-05-07T14:52:25;3.50;;;3.13;;
10705;SDS011;5404;42.656;23.336;2023-05-07T14:54:53;5.95;;;2.63;;
10705;SDS011;5404;42.656;23.336;2023-05-07T14:57:19;4.18;;;2.70;;
10705;SDS011;5404;42.656;23.336;2023-05-07T14:59:45;7.80;;;3.03;;
10705;SDS011;5404;42.656;23.336;2023-05-07T15:02:12;10.25;;;3.33;;
10705;SDS011;5404;42.656;23.336;2023-05-07T15:04:38;10.50;;;2.92;;